New York, NY

7:17 AM EDT on September 01, 2015 (GMT -0400)
Murray Hill | | Change Station
CLOSE
Current Station
Personal Weather Station
Location: New York, NY
Elevation: 98 ft
Nearby Weather Stations

Elev 98 ft 40.75 °N, 73.98 °W | Updated 23 seconds ago

Clear
Clear
78.3 °F
Feels Like 80 °F
N
5.0
Wind Variable Wind from NNW
Gusts 5.0 mph

Today
High -- | Low -- °F
--% Chance of Precip.
Yesterday
High -- | Low -- °F
Precip. -- in
6:22 AM 7:28 PM
Waning Gibbous, 89% visible
Pressure 30.03 in
Visibility 7.0 miles
Clouds Clear
Heat Index 80 °F
Dew Point 67 °F
Humidity 69%
Rainfall 0.00 in
Snow Depth Not available.
UV 0 out of 12
Pollen 10.00 out of 12
Air Quality Not available.
Flu Activity Not available.
METAR KNYC 011051Z AUTO 00000KT 7SM CLR 25/18 A3005 RMK AO2 SLP167 T02500183 $
Pressure 30.03 in
Visibility 7.0 miles
Clouds Clear
Heat Index 80 °F
Dew Point 67 °F
Humidity 69%
Rainfall 0.00 in
Snow Depth Not available.
UV 0 out of 12
Pollen 10.00 out of 12
Air Quality Not available.
Flu Activity Not available.
METAR KNYC 011051Z AUTO 00000KT 7SM CLR 25/18 A3005 RMK AO2 SLP167 T02500183 $

10-Day Weather Forecast

×

Almanac

Astronomy

Sep. 01, 2015 Rise Set
Actual Time
Civil Twilight
Nautical Twilight
Astronomical Twilight
Moon
Length of Visible Light
Length of Day
Tomorrow will be .
, % of the Moon is Illuminated

Today's Extremes

State Highs State Lows

Community

WunderPhotos

Upload Photos

1,851,501 photos uploaded!

WunderBlogs® & News

Nearby

Air Quality

  Air Quality AQ Index Pollutant
Not available.

Snow Depth

Station Depth Elevation

Earthquake Activity

City Distance Mag. Time & Date
Minimum magnitude displayed is 2.5.

Coastal Water Temperatures

Place Temperature

Stations

Nearby Weather Stations

Station Location Temp. Windchill Dew Point Humidity Wind Precip. Elev Updated Type